sensor_id;sensor_type;location;lat;lon;timestamp;pressure;altitude;pressure_sealevel;temperature;humidity
69221;BME280;56331;51.992;20.910;2022-08-19T00:00:31;99916.50;;;26.17;56.49
69221;BME280;56331;51.992;20.910;2022-08-19T00:02:59;99920.09;;;26.18;56.48
69221;BME280;56331;51.992;20.910;2022-08-19T00:05:26;99913.71;;;26.17;56.42
69221;BME280;56331;51.992;20.910;2022-08-19T00:07:52;99909.52;;;26.17;56.33
69221;BME280;56331;51.992;20.910;2022-08-19T00:10:20;99910.52;;;26.19;56.27
69221;BME280;56331;51.992;20.910;2022-08-19T00:12:47;99909.52;;;26.17;56.25
69221;BME280;56331;51.992;20.910;2022-08-19T00:15:16;99913.11;;;26.18;56.21
69221;BME280;56331;51.992;20.910;2022-08-19T00:17:45;99906.14;;;26.18;56.15
69221;BME280;56331;51.992;20.910;2022-08-19T00:20:14;99898.36;;;26.17;56.12
69221;BME280;56331;51.992;20.910;2022-08-19T00:22:44;99899.75;;;26.17;56.15
69221;BME280;56331;51.992;20.910;2022-08-19T00:25:11;99893.34;;;26.17;56.15
69221;BME280;56331;51.992;20.910;2022-08-19T00:27:37;99893.74;;;26.15;56.16
69221;BME280;56331;51.992;20.910;2022-08-19T00:30:05;99896.96;;;26.17;56.01
69221;BME280;56331;51.992;20.910;2022-08-19T00:32:32;99895.34;;;26.16;55.99
69221;BME280;56331;51.992;20.910;2022-08-19T00:35:01;99896.13;;;26.17;55.99
69221;BME280;56331;51.992;20.910;2022-08-19T00:37:28;99903.94;;;26.17;55.91
69221;BME280;56331;51.992;20.910;2022-08-19T00:39:55;99905.11;;;26.16;55.93
69221;BME280;56331;51.992;20.910;2022-08-19T00:42:22;99901.95;;;26.18;55.86
69221;BME280;56331;51.992;20.910;2022-08-19T00:44:49;99903.94;;;26.17;55.84
69221;BME280;56331;51.992;20.910;2022-08-19T00:47:16;99902.55;;;26.17;55.73
69221;BME280;56331;51.992;20.910;2022-08-19T00:52:19;99898.92;;;26.17;55.72
69221;BME280;56331;51.992;20.910;2022-08-19T00:54:46;99893.34;;;26.17;55.67
69221;BME280;56331;51.992;20.910;2022-08-19T00:57:17;99898.12;;;26.16;55.66
69221;BME280;56331;51.992;20.910;2022-08-19T00:59:46;99900.13;;;26.16;55.63
69221;BME280;56331;51.992;20.910;2022-08-19T01:02:20;99910.49;;;26.15;55.61
69221;BME280;56331;51.992;20.910;2022-08-19T01:04:46;99911.09;;;26.15;55.59
69221;BME280;56331;51.992;20.910;2022-08-19T01:07:13;99906.50;;;26.16;55.45
69221;BME280;56331;51.992;20.910;2022-08-19T01:09:39;99905.70;;;26.16;55.41
69221;BME280;56331;51.992;20.910;2022-08-19T01:12:06;99904.91;;;26.15;55.45
69221;BME280;56331;51.992;20.910;2022-08-19T01:14:34;99909.69;;;26.15;55.40
69221;BME280;56331;51.992;20.910;2022-08-19T01:17:01;99901.52;;;26.16;55.35
69221;BME280;56331;51.992;20.910;2022-08-19T01:24:28;99906.30;;;26.15;55.37
69221;BME280;56331;51.992;20.910;2022-08-19T01:26:54;99910.27;;;26.14;55.39
69221;BME280;56331;51.992;20.910;2022-08-19T01:29:21;99916.08;;;26.15;55.24
69221;BME280;56331;51.992;20.910;2022-08-19T01:31:47;99916.08;;;26.15;55.22
69221;BME280;56331;51.992;20.910;2022-08-19T01:34:15;99908.30;;;26.15;55.12
69221;BME280;56331;51.992;20.910;2022-08-19T01:36:43;99905.51;;;26.15;55.15
69221;BME280;56331;51.992;20.910;2022-08-19T01:39:17;99905.51;;;26.15;55.13
69221;BME280;56331;51.992;20.910;2022-08-19T01:41:46;99903.52;;;26.15;55.09
69221;BME280;56331;51.992;20.910;2022-08-19T01:44:15;99909.09;;;26.15;55.01
69221;BME280;56331;51.992;20.910;2022-08-19T01:46:42;99899.92;;;26.15;55.06
69221;BME280;56331;51.992;20.910;2022-08-19T01:49:09;99898.53;;;26.15;55.04
69221;BME280;56331;51.992;20.910;2022-08-19T01:51:37;99890.72;;;26.14;54.98
69221;BME280;56331;51.992;20.910;2022-08-19T01:54:04;99888.16;;;26.15;54.93
69221;BME280;56331;51.992;20.910;2022-08-19T01:56:30;99883.97;;;26.15;54.87
69221;BME280;56331;51.992;20.910;2022-08-19T01:59:05;99881.98;;;26.16;54.81
69221;BME280;56331;51.992;20.910;2022-08-19T02:01:32;99894.34;;;26.15;54.80
69221;BME280;56331;51.992;20.910;2022-08-19T02:04:00;99886.53;;;26.14;54.72
69221;BME280;56331;51.992;20.910;2022-08-19T02:06:27;99885.37;;;26.15;54.71
69221;BME280;56331;51.992;20.910;2022-08-19T02:08:55;99889.55;;;26.15;54.61
69221;BME280;56331;51.992;20.910;2022-08-19T02:11:27;99887.93;;;26.14;54.62
69221;BME280;56331;51.992;20.910;2022-08-19T02:13:53;99888.16;;;26.15;54.57
69221;BME280;56331;51.992;20.910;2022-08-19T02:16:21;99880.75;;;26.13;54.58
69221;BME280;56331;51.992;20.910;2022-08-19T02:18:48;99879.55;;;26.14;54.56
69221;BME280;56331;51.992;20.910;2022-08-19T02:21:17;99878.98;;;26.15;54.49
69221;BME280;56331;51.992;20.910;2022-08-19T02:23:44;99881.55;;;26.14;54.48
69221;BME280;56331;51.992;20.910;2022-08-19T02:26:11;99880.55;;;26.12;54.53
69221;BME280;56331;51.992;20.910;2022-08-19T02:28:38;99875.17;;;26.13;54.49
69221;BME280;56331;51.992;20.910;2022-08-19T02:33:35;99872.97;;;26.13;54.49
69221;BME280;56331;51.992;20.910;2022-08-19T02:36:04;99875.37;;;26.14;54.46
69221;BME280;56331;51.992;20.910;2022-08-19T02:38:31;99879.78;;;26.15;54.36
69221;BME280;56331;51.992;20.910;2022-08-19T02:41:01;99880.16;;;26.14;54.42
69221;BME280;56331;51.992;20.910;2022-08-19T02:43:30;99875.17;;;26.13;54.33
69221;BME280;56331;51.992;20.910;2022-08-19T02:45:56;99871.78;;;26.14;54.31
69221;BME280;56331;51.992;20.910;2022-08-19T02:48:25;99881.55;;;26.14;54.35
69221;BME280;56331;51.992;20.910;2022-08-19T02:50:52;99880.95;;;26.14;54.30
69221;BME280;56331;51.992;20.910;2022-08-19T02:53:23;99879.36;;;26.13;54.24
69221;BME280;56331;51.992;20.910;2022-08-19T02:55:50;99884.73;;;26.12;54.25
69221;BME280;56331;51.992;20.910;2022-08-19T02:58:18;99878.55;;;26.13;54.32
69221;BME280;56331;51.992;20.910;2022-08-19T03:00:48;99880.55;;;26.12;54.36
69221;BME280;56331;51.992;20.910;2022-08-19T03:03:15;99883.55;;;26.13;54.28
69221;BME280;56331;51.992;20.910;2022-08-19T03:05:42;99879.33;;;26.10;54.33
69221;BME280;56331;51.992;20.910;2022-08-19T03:08:12;99876.94;;;26.12;54.28
69221;BME280;56331;51.992;20.910;2022-08-19T03:10:44;99874.73;;;26.11;54.26
69221;BME280;56331;51.992;20.910;2022-08-19T03:13:14;99876.94;;;26.12;54.30
69221;BME280;56331;51.992;20.910;2022-08-19T03:15:43;99879.72;;;26.12;54.26
69221;BME280;56331;51.992;20.910;2022-08-19T03:18:10;99874.73;;;26.11;54.31
69221;BME280;56331;51.992;20.910;2022-08-19T03:20:45;99870.55;;;26.11;54.31
69221;BME280;56331;51.992;20.910;2022-08-19T03:23:12;99873.34;;;26.11;54.26
69221;BME280;56331;51.992;20.910;2022-08-19T03:25:44;99879.72;;;26.12;54.19
69221;BME280;56331;51.992;20.910;2022-08-19T03:28:12;99879.72;;;26.12;54.17
69221;BME280;56331;51.992;20.910;2022-08-19T03:30:40;99873.74;;;26.10;54.22
69221;BME280;56331;51.992;20.910;2022-08-19T03:33:09;99879.89;;;26.09;54.22
69221;BME280;56331;51.992;20.910;2022-08-19T03:35:37;99885.70;;;26.10;54.26
69221;BME280;56331;51.992;20.910;2022-08-19T03:38:05;99884.31;;;26.10;54.20
69221;BME280;56331;51.992;20.910;2022-08-19T03:40:36;99883.52;;;26.10;54.14
69221;BME280;56331;51.992;20.910;2022-08-19T03:43:03;99891.48;;;26.11;54.13
69221;BME280;56331;51.992;20.910;2022-08-19T03:45:31;99891.29;;;26.10;54.09
69221;BME280;56331;51.992;20.910;2022-08-19T03:47:58;99894.68;;;26.10;54.04
69221;BME280;56331;51.992;20.910;2022-08-19T03:50:26;99894.68;;;26.10;54.09
69221;BME280;56331;51.992;20.910;2022-08-19T03:52:53;99896.88;;;26.10;54.11
69221;BME280;56331;51.992;20.910;2022-08-19T03:55:20;99889.66;;;26.09;54.14
69221;BME280;56331;51.992;20.910;2022-08-19T03:57:48;99889.66;;;26.09;54.10
69221;BME280;56331;51.992;20.910;2022-08-19T04:02:50;99890.89;;;26.12;54.11
69221;BME280;56331;51.992;20.910;2022-08-19T04:05:18;99883.52;;;26.10;54.19
69221;BME280;56331;51.992;20.910;2022-08-19T04:07:44;99888.27;;;26.09;54.26
69221;BME280;56331;51.992;20.910;2022-08-19T04:10:11;99880.49;;;26.09;54.29
69221;BME280;56331;51.992;20.910;2022-08-19T04:12:37;99885.28;;;26.08;54.33
69221;BME280;56331;51.992;20.910;2022-08-19T04:15:06;99881.69;;;26.08;54.35
69221;BME280;56331;51.992;20.910;2022-08-19T04:17:34;99874.11;;;26.08;54.41
69221;BME280;56331;51.992;20.910;2022-08-19T04:20:00;99878.30;;;26.08;54.42
69221;BME280;56331;51.992;20.910;2022-08-19T04:22:27;99880.30;;;26.08;54.43
69221;BME280;56331;51.992;20.910;2022-08-19T04:24:53;99883.68;;;26.07;54.46
69221;BME280;56331;51.992;20.910;2022-08-19T04:27:19;99885.08;;;26.07;54.48
69221;BME280;56331;51.992;20.910;2022-08-19T04:29:46;99888.44;;;26.07;54.51
69221;BME280;56331;51.992;20.910;2022-08-19T04:32:13;99887.05;;;26.07;54.54
69221;BME280;56331;51.992;20.910;2022-08-19T04:34:41;99891.63;;;26.05;54.60
69221;BME280;56331;51.992;20.910;2022-08-19T04:37:09;99897.41;;;26.06;54.62
69221;BME280;56331;51.992;20.910;2022-08-19T04:39:39;99893.63;;;26.05;54.64
69221;BME280;56331;51.992;20.910;2022-08-19T04:42:24;99895.22;;;26.06;54.68
69221;BME280;56331;51.992;20.910;2022-08-19T04:45:07;99898.01;;;26.06;54.68
69221;BME280;56331;51.992;20.910;2022-08-19T04:47:37;99893.63;;;26.05;54.69
69221;BME280;56331;51.992;20.910;2022-08-19T04:50:05;99887.44;;;26.05;54.74
69221;BME280;56331;51.992;20.910;2022-08-19T04:52:32;99895.81;;;26.05;54.75
69221;BME280;56331;51.992;20.910;2022-08-19T04:55:00;99898.01;;;26.06;54.76
69221;BME280;56331;51.992;20.910;2022-08-19T04:57:27;99897.21;;;26.05;54.80
69221;BME280;56331;51.992;20.910;2022-08-19T04:59:56;99906.38;;;26.06;54.82
69221;BME280;56331;51.992;20.910;2022-08-19T05:02:44;99915.35;;;26.05;54.82
69221;BME280;56331;51.992;20.910;2022-08-19T05:05:10;99912.56;;;26.05;54.86
69221;BME280;56331;51.992;20.910;2022-08-19T05:07:36;99909.77;;;26.05;54.89
69221;BME280;56331;51.992;20.910;2022-08-19T05:10:05;99909.17;;;26.06;54.90
69221;BME280;56331;51.992;20.910;2022-08-19T05:12:31;99913.95;;;26.05;54.96
69221;BME280;56331;51.992;20.910;2022-08-19T05:14:58;99908.38;;;26.05;54.99
69221;BME280;56331;51.992;20.910;2022-08-19T05:17:26;99911.77;;;26.05;55.00
69221;BME280;56331;51.992;20.910;2022-08-19T05:19:54;99907.58;;;26.05;55.00
69221;BME280;56331;51.992;20.910;2022-08-19T05:22:39;99912.56;;;26.05;55.08
69221;BME280;56331;51.992;20.910;2022-08-19T05:25:09;99917.34;;;26.05;55.10
69221;BME280;56331;51.992;20.910;2022-08-19T05:27:35;99906.75;;;26.04;55.10
69221;BME280;56331;51.992;20.910;2022-08-19T05:30:03;99902.00;;;26.05;55.12
69221;BME280;56331;51.992;20.910;2022-08-19T05:32:30;99896.98;;;26.04;55.15
69221;BME280;56331;51.992;20.910;2022-08-19T05:34:56;99897.81;;;26.05;55.21
69221;BME280;56331;51.992;20.910;2022-08-19T05:37:23;99902.96;;;26.03;55.24
69221;BME280;56331;51.992;20.910;2022-08-19T05:39:52;99906.55;;;26.03;55.23
69221;BME280;56331;51.992;20.910;2022-08-19T05:42:19;99916.31;;;26.03;55.26
69221;BME280;56331;51.992;20.910;2022-08-19T05:44:46;99920.30;;;26.02;55.33
69221;BME280;56331;51.992;20.910;2022-08-19T05:47:15;99918.91;;;26.02;55.35
69221;BME280;56331;51.992;20.910;2022-08-19T05:49:42;99906.91;;;26.02;55.37
69221;BME280;56331;51.992;20.910;2022-08-19T05:52:11;99907.15;;;26.03;55.37
69221;BME280;56331;51.992;20.910;2022-08-19T05:54:40;99901.56;;;26.03;55.41
69221;BME280;56331;51.992;20.910;2022-08-19T05:57:09;99896.58;;;26.02;55.44
69221;BME280;56331;51.992;20.910;2022-08-19T05:59:36;99900.17;;;26.03;55.44
69221;BME280;56331;51.992;20.910;2022-08-19T06:02:04;99886.81;;;26.02;55.47
69221;BME280;56331;51.992;20.910;2022-08-19T06:04:31;99891.00;;;26.02;55.49
69221;BME280;56331;51.992;20.910;2022-08-19T06:06:58;99899.38;;;26.02;55.54
69221;BME280;56331;51.992;20.910;2022-08-19T06:09:25;99900.97;;;26.03;55.56
69221;BME280;56331;51.992;20.910;2022-08-19T06:11:54;99901.56;;;26.03;55.56
69221;BME280;56331;51.992;20.910;2022-08-19T06:14:24;99907.75;;;26.02;55.60
69221;BME280;56331;51.992;20.910;2022-08-19T06:16:50;99908.91;;;26.01;55.63
69221;BME280;56331;51.992;20.910;2022-08-19T06:19:19;99915.09;;;26.01;55.69
69221;BME280;56331;51.992;20.910;2022-08-19T06:21:49;99917.87;;;26.01;55.71
69221;BME280;56331;51.992;20.910;2022-08-19T06:24:19;99926.85;;;26.00;55.77
69221;BME280;56331;51.992;20.910;2022-08-19T06:26:48;99925.45;;;26.00;55.77
69221;BME280;56331;51.992;20.910;2022-08-19T06:29:15;99930.24;;;26.00;55.79
69221;BME280;56331;51.992;20.910;2022-08-19T06:31:44;99928.84;;;26.00;55.85
69221;BME280;56331;51.992;20.910;2022-08-19T06:34:12;99932.44;;;26.00;55.87
69221;BME280;56331;51.992;20.910;2022-08-19T06:36:42;99933.03;;;26.00;55.87
69221;BME280;56331;51.992;20.910;2022-08-19T06:39:12;99932.44;;;26.00;55.88
69221;BME280;56331;51.992;20.910;2022-08-19T06:41:45;99931.04;;;26.00;55.91
69221;BME280;56331;51.992;20.910;2022-08-19T06:44:12;99934.42;;;26.00;55.94
69221;BME280;56331;51.992;20.910;2022-08-19T06:46:39;99937.42;;;26.01;55.96
69221;BME280;56331;51.992;20.910;2022-08-19T06:49:07;99933.83;;;26.00;55.96
69221;BME280;56331;51.992;20.910;2022-08-19T06:51:36;99929.64;;;26.00;56.04
69221;BME280;56331;51.992;20.910;2022-08-19T06:54:03;99924.66;;;26.00;56.05
69221;BME280;56331;51.992;20.910;2022-08-19T06:56:30;99927.05;;;26.01;56.03
69221;BME280;56331;51.992;20.910;2022-08-19T06:59:05;99929.84;;;26.01;56.06
69221;BME280;56331;51.992;20.910;2022-08-19T07:04:06;99928.45;;;26.01;56.13
69221;BME280;56331;51.992;20.910;2022-08-19T07:06:52;99928.71;;;26.06;56.13
69221;BME280;56331;51.992;20.910;2022-08-19T07:09:18;99926.85;;;26.00;56.15
69221;BME280;56331;51.992;20.910;2022-08-19T07:11:47;99925.45;;;26.00;56.19
69221;BME280;56331;51.992;20.910;2022-08-19T07:14:16;99924.49;;;26.02;56.17
69221;BME280;56331;51.992;20.910;2022-08-19T07:16:44;99922.50;;;26.03;56.18
69221;BME280;56331;51.992;20.910;2022-08-19T07:19:12;99919.11;;;26.03;56.22
69221;BME280;56331;51.992;20.910;2022-08-19T07:21:39;99910.53;;;26.02;56.24
69221;BME280;56331;51.992;20.910;2022-08-19T07:24:06;99910.30;;;26.01;56.22
69221;BME280;56331;51.992;20.910;2022-08-19T07:26:39;99915.29;;;26.02;56.29
69221;BME280;56331;51.992;20.910;2022-08-19T07:29:07;99923.09;;;26.02;56.31
69221;BME280;56331;51.992;20.910;2022-08-19T07:31:34;99916.69;;;26.02;56.35
69221;BME280;56331;51.992;20.910;2022-08-19T07:34:05;99917.28;;;26.01;56.36
69221;BME280;56331;51.992;20.910;2022-08-19T07:36:37;99909.94;;;26.03;56.38
69221;BME280;56331;51.992;20.910;2022-08-19T07:39:06;99913.33;;;26.02;56.39
69221;BME280;56331;51.992;20.910;2022-08-19T07:41:35;99916.12;;;26.02;56.40
69221;BME280;56331;51.992;20.910;2022-08-19T07:44:04;99913.89;;;26.02;56.45
69221;BME280;56331;51.992;20.910;2022-08-19T07:46:35;99908.11;;;26.01;56.52
69221;BME280;56331;51.992;20.910;2022-08-19T07:49:02;99913.09;;;26.01;56.49
69221;BME280;56331;51.992;20.910;2022-08-19T07:51:29;99910.30;;;26.01;56.55
69221;BME280;56331;51.992;20.910;2022-08-19T07:53:55;99914.49;;;26.01;56.58
69221;BME280;56331;51.992;20.910;2022-08-19T07:56:22;99917.28;;;26.01;56.56
69221;BME280;56331;51.992;20.910;2022-08-19T07:58:50;99904.72;;;26.01;56.58
69221;BME280;56331;51.992;20.910;2022-08-19T08:01:20;99906.55;;;26.03;56.58
69221;BME280;56331;51.992;20.910;2022-08-19T08:03:48;99909.34;;;26.03;56.60
69221;BME280;56331;51.992;20.910;2022-08-19T08:06:33;99905.95;;;26.04;56.64
69221;BME280;56331;51.992;20.910;2022-08-19T08:09:22;99905.16;;;26.03;56.69
69221;BME280;56331;51.992;20.910;2022-08-19T08:11:54;99910.53;;;26.02;56.71
69221;BME280;56331;51.992;20.910;2022-08-19T08:14:26;99901.56;;;26.03;56.73
69221;BME280;56331;51.992;20.910;2022-08-19T08:16:53;99900.77;;;26.02;56.74
69221;BME280;56331;51.992;20.910;2022-08-19T08:19:22;99900.17;;;26.03;56.73
69221;BME280;56331;51.992;20.910;2022-08-19T08:21:49;99907.95;;;26.03;56.78
69221;BME280;56331;51.992;20.910;2022-08-19T08:24:16;99911.77;;;26.05;56.76
69221;BME280;56331;51.992;20.910;2022-08-19T08:26:44;99906.55;;;26.03;56.78
69221;BME280;56331;51.992;20.910;2022-08-19T08:29:11;99913.95;;;26.05;56.81
69221;BME280;56331;51.992;20.910;2022-08-19T08:31:43;99916.95;;;26.06;56.83
69221;BME280;56331;51.992;20.910;2022-08-19T08:34:11;99916.34;;;26.07;56.80
69221;BME280;56331;51.992;20.910;2022-08-19T08:36:41;99912.16;;;26.07;56.79
69221;BME280;56331;51.992;20.910;2022-08-19T08:39:09;99910.20;;;26.07;56.70
69221;BME280;56331;51.992;20.910;2022-08-19T08:41:54;99912.59;;;26.09;56.73
69221;BME280;56331;51.992;20.910;2022-08-19T08:49:48;99910.40;;;26.08;56.73
69221;BME280;56331;51.992;20.910;2022-08-19T08:52:25;99925.16;;;26.09;56.72
69221;BME280;56331;51.992;20.910;2022-08-19T08:54:55;99925.16;;;26.09;56.78
69221;BME280;56331;51.992;20.910;2022-08-19T08:57:49;99916.78;;;26.09;56.75
69221;BME280;56331;51.992;20.910;2022-08-19T09:00:15;99915.61;;;26.10;56.75
69221;BME280;56331;51.992;20.910;2022-08-19T09:02:40;99911.37;;;26.06;56.83
69221;BME280;56331;51.992;20.910;2022-08-19T09:05:06;99912.98;;;26.07;56.77
69221;BME280;56331;51.992;20.910;2022-08-19T09:07:46;99918.17;;;26.09;56.81
69221;BME280;56331;51.992;20.910;2022-08-19T09:10:35;99927.34;;;26.09;56.83
69221;BME280;56331;51.992;20.910;2022-08-19T09:16:00;99941.30;;;26.09;56.82
69221;BME280;56331;51.992;20.910;2022-08-19T09:18:42;99940.94;;;26.11;56.84
69221;BME280;56331;51.992;20.910;2022-08-19T09:21:06;99947.12;;;26.10;56.83
69221;BME280;56331;51.992;20.910;2022-08-19T09:23:36;99954.09;;;26.10;56.85
69221;BME280;56331;51.992;20.910;2022-08-19T09:26:08;99952.11;;;26.11;56.86
69221;BME280;56331;51.992;20.910;2022-08-19T09:28:35;99954.53;;;26.12;56.85
69221;BME280;56331;51.992;20.910;2022-08-19T09:31:02;99950.91;;;26.12;56.87
69221;BME280;56331;51.992;20.910;2022-08-19T09:33:29;99950.91;;;26.12;56.90
69221;BME280;56331;51.992;20.910;2022-08-19T09:36:06;99954.53;;;26.12;56.90
69221;BME280;56331;51.992;20.910;2022-08-19T09:38:48;99953.59;;;26.18;56.82
69221;BME280;56331;51.992;20.910;2022-08-19T09:41:17;99959.52;;;26.13;56.89
69221;BME280;56331;51.992;20.910;2022-08-19T09:43:45;99956.13;;;26.13;56.95
69221;BME280;56331;51.992;20.910;2022-08-19T09:46:12;99954.09;;;26.10;56.97
69221;BME280;56331;51.992;20.910;2022-08-19T09:48:40;99954.30;;;26.11;56.97
69221;BME280;56331;51.992;20.910;2022-08-19T09:51:10;99946.89;;;26.09;56.98
69221;BME280;56331;51.992;20.910;2022-08-19T09:53:38;99945.49;;;26.09;56.99
69221;BME280;56331;51.992;20.910;2022-08-19T09:56:06;99940.31;;;26.08;57.01
69221;BME280;56331;51.992;20.910;2022-08-19T09:58:33;99946.09;;;26.09;57.00
69221;BME280;56331;51.992;20.910;2022-08-19T10:01:01;99942.70;;;26.09;57.01
69221;BME280;56331;51.992;20.910;2022-08-19T10:03:29;99939.71;;;26.08;56.98
69221;BME280;56331;51.992;20.910;2022-08-19T10:05:59;99946.89;;;26.09;57.00
69221;BME280;56331;51.992;20.910;2022-08-19T10:08:29;99930.97;;;26.10;57.02
69221;BME280;56331;51.992;20.910;2022-08-19T10:10:57;99931.77;;;26.10;57.03
69221;BME280;56331;51.992;20.910;2022-08-19T10:13:26;99924.78;;;26.10;57.00
69221;BME280;56331;51.992;20.910;2022-08-19T10:15:55;99931.37;;;26.12;57.05
69221;BME280;56331;51.992;20.910;2022-08-19T10:18:23;99936.55;;;26.10;57.07
69221;BME280;56331;51.992;20.910;2022-08-19T10:20:51;99931.77;;;26.10;57.06
69221;BME280;56331;51.992;20.910;2022-08-19T10:23:20;99926.38;;;26.11;57.05
69221;BME280;56331;51.992;20.910;2022-08-19T10:25:48;99927.18;;;26.12;57.07
69221;BME280;56331;51.992;20.910;2022-08-19T10:28:15;99926.61;;;26.12;57.06
69221;BME280;56331;51.992;20.910;2022-08-19T10:30:42;99929.41;;;26.12;57.06
69221;BME280;56331;51.992;20.910;2022-08-19T10:33:09;99923.82;;;26.12;57.04
69221;BME280;56331;51.992;20.910;2022-08-19T10:35:36;99919.63;;;26.12;57.13
69221;BME280;56331;51.992;20.910;2022-08-19T10:38:02;99922.99;;;26.12;57.10
69221;BME280;56331;51.992;20.910;2022-08-19T10:40:29;99926.61;;;26.12;57.12
69221;BME280;56331;51.992;20.910;2022-08-19T10:42:56;99920.44;;;26.13;57.09
69221;BME280;56331;51.992;20.910;2022-08-19T10:45:23;99928.21;;;26.13;57.09
69221;BME280;56331;51.992;20.910;2022-08-19T10:47:53;99922.02;;;26.14;57.08
69221;BME280;56331;51.992;20.910;2022-08-19T10:50:20;99911.66;;;26.14;57.08
69221;BME280;56331;51.992;20.910;2022-08-19T10:53:07;99920.03;;;26.14;57.08
69221;BME280;56331;51.992;20.910;2022-08-19T10:55:37;99924.22;;;26.14;57.08
69221;BME280;56331;51.992;20.910;2022-08-19T10:58:23;99917.23;;;26.14;57.05
69221;BME280;56331;51.992;20.910;2022-08-19T11:00:57;99912.26;;;26.14;57.08
69221;BME280;56331;51.992;20.910;2022-08-19T11:03:25;99910.27;;;26.14;57.07
69221;BME280;56331;51.992;20.910;2022-08-19T11:05:57;99910.27;;;26.14;57.10
69221;BME280;56331;51.992;20.910;2022-08-19T11:08:24;99900.66;;;26.12;57.11
69221;BME280;56331;51.992;20.910;2022-08-19T11:10:53;99901.69;;;26.13;57.11
69221;BME280;56331;51.992;20.910;2022-08-19T11:13:25;99901.69;;;26.13;57.11
69221;BME280;56331;51.992;20.910;2022-08-19T11:18:39;99895.34;;;26.16;57.07
69221;BME280;56331;51.992;20.910;2022-08-19T11:23:35;99897.13;;;26.15;57.15
69221;BME280;56331;51.992;20.910;2022-08-19T11:26:01;99887.93;;;26.14;57.08
69221;BME280;56331;51.992;20.910;2022-08-19T11:28:28;99883.97;;;26.15;57.09
69221;BME280;56331;51.992;20.910;2022-08-19T11:30:54;99886.77;;;26.15;57.10
69221;BME280;56331;51.992;20.910;2022-08-19T11:33:21;99884.97;;;26.17;57.10
69221;BME280;56331;51.992;20.910;2022-08-19T11:35:48;99885.20;;;26.18;57.09
69221;BME280;56331;51.992;20.910;2022-08-19T11:38:15;99878.22;;;26.18;57.09
69221;BME280;56331;51.992;20.910;2022-08-19T11:40:42;99881.61;;;26.17;57.06
69221;BME280;56331;51.992;20.910;2022-08-19T11:43:08;99878.81;;;26.17;57.11
69221;BME280;56331;51.992;20.910;2022-08-19T11:45:35;99875.20;;;26.17;57.10
69221;BME280;56331;51.992;20.910;2022-08-19T11:48:02;99871.23;;;26.18;57.12
69221;BME280;56331;51.992;20.910;2022-08-19T11:50:29;99864.26;;;26.18;57.12
69221;BME280;56331;51.992;20.910;2022-08-19T11:52:56;99862.86;;;26.18;57.12
69221;BME280;56331;51.992;20.910;2022-08-19T11:55:23;99856.08;;;26.19;57.12
69221;BME280;56331;51.992;20.910;2022-08-19T11:57:49;99857.70;;;26.20;57.11
69221;BME280;56331;51.992;20.910;2022-08-19T12:00:16;99855.48;;;26.19;57.08
69221;BME280;56331;51.992;20.910;2022-08-19T12:02:42;99852.49;;;26.18;57.09
69221;BME280;56331;51.992;20.910;2022-08-19T12:05:09;99851.30;;;26.19;57.08
69221;BME280;56331;51.992;20.910;2022-08-19T12:07:36;99851.09;;;26.18;57.09
69221;BME280;56331;51.992;20.910;2022-08-19T12:10:03;99856.31;;;26.20;57.13
69221;BME280;56331;51.992;20.910;2022-08-19T12:12:29;99851.30;;;26.19;57.12
69221;BME280;56331;51.992;20.910;2022-08-19T12:14:56;99843.75;;;26.20;57.12
69221;BME280;56331;51.992;20.910;2022-08-19T12:17:25;99845.94;;;26.21;57.18
69221;BME280;56331;51.992;20.910;2022-08-19T12:19:53;99843.75;;;26.20;57.13
69221;BME280;56331;51.992;20.910;2022-08-19T12:22:20;99842.55;;;26.21;57.12
69221;BME280;56331;51.992;20.910;2022-08-19T12:24:47;99834.77;;;26.21;57.12
69221;BME280;56331;51.992;20.910;2022-08-19T12:27:16;99833.58;;;26.22;57.12
69221;BME280;56331;51.992;20.910;2022-08-19T12:29:43;99832.78;;;26.21;57.07
69221;BME280;56331;51.992;20.910;2022-08-19T12:32:09;99836.00;;;26.23;57.11
69221;BME280;56331;51.992;20.910;2022-08-19T12:34:36;99821.20;;;26.23;57.10
69221;BME280;56331;51.992;20.910;2022-08-19T12:37:05;99824.83;;;26.23;57.11
69221;BME280;56331;51.992;20.910;2022-08-19T12:42:05;99814.83;;;26.22;57.10
69221;BME280;56331;51.992;20.910;2022-08-19T12:44:33;99819.24;;;26.23;57.08
69221;BME280;56331;51.992;20.910;2022-08-19T12:47:00;99822.03;;;26.23;57.10
69221;BME280;56331;51.992;20.910;2022-08-19T12:49:29;99819.81;;;26.23;57.10
69221;BME280;56331;51.992;20.910;2022-08-19T12:51:57;99815.63;;;26.23;57.10
69221;BME280;56331;51.992;20.910;2022-08-19T12:54:24;99808.64;;;26.23;57.11
69221;BME280;56331;51.992;20.910;2022-08-19T12:56:51;99806.08;;;26.24;57.09
69221;BME280;56331;51.992;20.910;2022-08-19T12:59:17;99803.29;;;26.24;57.09
69221;BME280;56331;51.992;20.910;2022-08-19T13:01:44;99803.29;;;26.24;57.09
69221;BME280;56331;51.992;20.910;2022-08-19T13:04:11;99804.88;;;26.25;57.06
69221;BME280;56331;51.992;20.910;2022-08-19T13:06:38;99806.50;;;26.26;57.07
69221;BME280;56331;51.992;20.910;2022-08-19T13:09:05;99807.67;;;26.25;57.06
69221;BME280;56331;51.992;20.910;2022-08-19T13:11:32;99807.67;;;26.25;57.06
69221;BME280;56331;51.992;20.910;2022-08-19T13:14:00;99807.90;;;26.26;57.07
69221;BME280;56331;51.992;20.910;2022-08-19T13:16:28;99801.72;;;26.26;57.02
69221;BME280;56331;51.992;20.910;2022-08-19T13:18:56;99809.49;;;26.27;57.03
69221;BME280;56331;51.992;20.910;2022-08-19T13:21:26;99804.51;;;26.26;57.01
69221;BME280;56331;51.992;20.910;2022-08-19T13:23:54;99800.92;;;26.26;57.00
69221;BME280;56331;51.992;20.910;2022-08-19T13:26:20;99802.52;;;26.27;57.02
69221;BME280;56331;51.992;20.910;2022-08-19T13:28:47;99798.13;;;26.26;57.01